Time;durP1;ratioP1;P1;durP2;ratioP2;P2;SDS_P1;SDS_P2;PMS_P1;PMS_P2;Temp;Humidity;BMP_temperature;BMP_pressure;BME280_temperature;BME280_humidity;BME280_pressure;Samples;Min_cycle;Max_cycle;Signal;HPM_P1;HPM_P2
2023/09/03 00:00:14;;;;;;;;;;;22.50;56.30;;;;;;1551020;75;1092;-51
2023/09/03 00:02:16;;;;;;;;;;;22.50;56.00;;;;;;1554197;75;1937;-52
2023/09/03 00:04:18;;;;;;;;;;;22.50;56.00;;;;;;1551628;75;590;-52
2023/09/03 00:06:20;;;;;;;;;;;22.50;56.10;;;;;;1545943;75;794;-50
2023/09/03 00:08:22;;;;;;;;;;;22.50;56.00;;;;;;1543979;75;797;-52
2023/09/03 00:10:24;;;;;;;;;;;22.50;56.00;;;;;;1547390;75;1139;-53
2023/09/03 00:12:26;;;;;;;;;;;22.50;56.00;;;;;;1544304;75;720;-51
2023/09/03 00:14:28;;;;;;;;;;;22.50;55.90;;;;;;1545522;75;697;-51
2023/09/03 00:16:29;;;;;;;;;;;22.50;56.00;;;;;;1557674;75;1501;-50
2023/09/03 00:18:32;;;;;;;;;;;22.50;56.10;;;;;;1555178;75;734;-51
2023/09/03 00:20:34;;;;;;;;;;;22.50;55.90;;;;;;1546874;75;1229;-50
2023/09/03 00:22:36;;;;;;;;;;;22.50;55.90;;;;;;1548698;75;1940;-50
2023/09/03 00:24:38;;;;;;;;;;;22.50;55.70;;;;;;1544739;75;708;-50
2023/09/03 00:26:41;;;;;;;;;;;22.50;55.70;;;;;;1558074;75;742;-51
2023/09/03 00:28:43;;;;;;;;;;;22.50;55.70;;;;;;1557973;75;701;-51
2023/09/03 00:30:44;;;;;;;;;;;22.40;55.50;;;;;;1542601;75;1458;-52
2023/09/03 00:32:47;;;;;;;;;;;22.50;55.70;;;;;;1552074;75;724;-51
2023/09/03 00:34:49;;;;;;;;;;;22.50;55.70;;;;;;1554826;75;791;-52
2023/09/03 00:36:51;;;;;;;;;;;22.50;55.70;;;;;;1552159;75;660;-51
2023/09/03 00:38:53;;;;;;;;;;;22.50;55.70;;;;;;1557877;75;745;-50
2023/09/03 00:40:55;;;;;;;;;;;22.40;55.60;;;;;;1547949;75;1914;-51
2023/09/03 00:42:57;;;;;;;;;;;22.50;55.70;;;;;;1550426;75;664;-54
2023/09/03 00:44:58;;;;;;;;;;;22.40;55.70;;;;;;1547811;75;1264;-54
2023/09/03 00:47:00;;;;;;;;;;;22.50;55.80;;;;;;1550007;75;709;-52
2023/09/03 00:49:02;;;;;;;;;;;22.50;55.70;;;;;;1545458;75;705;-53
2023/09/03 00:51:06;;;;;;;;;;;22.40;55.60;;;;;;1541007;75;1139;-54
2023/09/03 00:53:08;;;;;;;;;;;22.50;55.70;;;;;;1546425;75;748;-53
2023/09/03 00:55:10;;;;;;;;;;;22.50;55.70;;;;;;1548658;75;750;-53
2023/09/03 00:57:11;;;;;;;;;;;22.50;55.90;;;;;;1553764;75;816;-53
2023/09/03 00:59:13;;;;;;;;;;;22.40;55.80;;;;;;1541580;75;1412;-52
2023/09/03 01:01:15;;;;;;;;;;;22.50;55.90;;;;;;1548711;75;1943;-54
2023/09/03 01:03:17;;;;;;;;;;;22.50;55.70;;;;;;1555443;75;706;-53
2023/09/03 01:05:19;;;;;;;;;;;22.40;55.50;;;;;;1545289;75;699;-53
2023/09/03 01:07:21;;;;;;;;;;;22.50;55.70;;;;;;1546073;75;770;-53
2023/09/03 01:09:23;;;;;;;;;;;22.50;55.70;;;;;;1548471;75;1147;-52
2023/09/03 01:11:35;;;;;;;;;;;22.50;55.70;;;;;;1558994;75;778;-53
2023/09/03 01:13:38;;;;;;;;;;;22.40;55.60;;;;;;1551696;75;1618;-53
2023/09/03 01:15:42;;;;;;;;;;;22.40;55.60;;;;;;1550962;75;690;-52
2023/09/03 01:17:55;;;;;;;;;;;22.50;55.70;;;;;;1551592;75;1470;-52
2023/09/03 01:20:07;;;;;;;;;;;22.40;55.50;;;;;;1550569;75;1150;-53
2023/09/03 01:22:16;;;;;;;;;;;22.40;55.60;;;;;;1535393;75;1939;-52
2023/09/03 01:24:25;;;;;;;;;;;22.40;55.40;;;;;;1562162;75;1068;-52
2023/09/03 01:26:45;;;;;;;;;;;22.50;55.50;;;;;;1552462;75;1764;-53
2023/09/03 01:28:47;;;;;;;;;;;22.40;55.30;;;;;;1542506;75;802;-52
2023/09/03 01:30:50;;;;;;;;;;;22.40;55.30;;;;;;1548052;75;1118;-52
2023/09/03 01:32:51;;;;;;;;;;;22.40;55.30;;;;;;1550257;75;779;-53
2023/09/03 01:34:53;;;;;;;;;;;22.40;55.20;;;;;;1556096;75;767;-52
2023/09/03 01:36:55;;;;;;;;;;;22.40;55.30;;;;;;1545707;75;651;-52
2023/09/03 01:38:59;;;;;;;;;;;22.50;55.40;;;;;;1550414;75;696;-52
2023/09/03 01:41:01;;;;;;;;;;;22.40;55.20;;;;;;1550904;75;1553;-52
2023/09/03 01:43:03;;;;;;;;;;;22.40;55.10;;;;;;1551694;75;1965;-52
2023/09/03 01:45:05;;;;;;;;;;;22.50;55.30;;;;;;1554237;75;763;-53
2023/09/03 01:47:25;;;;;;;;;;;22.40;55.20;;;;;;1547626;75;721;-52
2023/09/03 01:49:28;;;;;;;;;;;22.40;55.00;;;;;;1545212;75;1137;-52
2023/09/03 01:51:44;;;;;;;;;;;22.40;55.00;;;;;;1548417;75;1824;-52
2023/09/03 01:53:51;;;;;;;;;;;22.40;55.00;;;;;;1547355;75;1462;-52
2023/09/03 01:55:57;;;;;;;;;;;22.40;55.00;;;;;;1543326;75;1503;-52
2023/09/03 01:57:59;;;;;;;;;;;22.40;55.00;;;;;;1557865;74;1597;-52
2023/09/03 02:00:03;;;;;;;;;;;22.40;55.00;;;;;;1567797;75;1126;-53
2023/09/03 02:02:05;;;;;;;;;;;22.40;55.00;;;;;;1550479;75;1929;-52
2023/09/03 02:04:07;;;;;;;;;;;22.40;55.00;;;;;;1547883;75;775;-52
2023/09/03 02:06:09;;;;;;;;;;;22.40;55.00;;;;;;1541785;75;718;-52
2023/09/03 02:08:11;;;;;;;;;;;22.40;55.00;;;;;;1551809;75;1439;-52
2023/09/03 02:10:13;;;;;;;;;;;22.30;55.00;;;;;;1551481;75;1115;-52
2023/09/03 02:12:16;;;;;;;;;;;22.40;55.00;;;;;;1545329;75;664;-53
2023/09/03 02:14:18;;;;;;;;;;;22.40;55.00;;;;;;1556839;75;730;-52
2023/09/03 02:16:20;;;;;;;;;;;22.40;55.00;;;;;;1551271;75;701;-52
2023/09/03 02:18:22;;;;;;;;;;;22.40;55.00;;;;;;1552691;75;699;-52
2023/09/03 02:20:24;;;;;;;;;;;22.40;55.00;;;;;;1547090;75;1115;-53
2023/09/03 02:22:25;;;;;;;;;;;22.40;54.90;;;;;;1552319;75;1939;-52
2023/09/03 02:24:27;;;;;;;;;;;22.40;54.90;;;;;;1548240;75;785;-52
2023/09/03 02:26:29;;;;;;;;;;;22.40;54.90;;;;;;1551347;75;710;-52
2023/09/03 02:28:33;;;;;;;;;;;22.30;54.80;;;;;;1553143;75;667;-54
2023/09/03 02:30:35;;;;;;;;;;;22.40;54.90;;;;;;1546271;75;1515;-52
2023/09/03 02:32:37;;;;;;;;;;;22.40;55.00;;;;;;1545943;75;736;-52
2023/09/03 02:34:38;;;;;;;;;;;22.40;54.90;;;;;;1551317;75;712;-52
2023/09/03 02:36:40;;;;;;;;;;;22.40;55.00;;;;;;1546374;75;1541;-53
2023/09/03 02:38:43;;;;;;;;;;;22.40;55.10;;;;;;1554027;75;726;-53
2023/09/03 02:40:45;;;;;;;;;;;22.40;55.20;;;;;;1538744;75;1149;-52
2023/09/03 02:42:47;;;;;;;;;;;22.40;55.20;;;;;;1556976;75;1927;-52
2023/09/03 02:44:49;;;;;;;;;;;22.40;55.10;;;;;;1553476;75;722;-52
2023/09/03 02:46:51;;;;;;;;;;;22.40;55.20;;;;;;1552543;75;764;-52
2023/09/03 02:48:52;;;;;;;;;;;22.30;55.00;;;;;;1544825;75;674;-52
2023/09/03 02:50:54;;;;;;;;;;;22.40;54.90;;;;;;1553273;75;1543;-53
2023/09/03 02:52:56;;;;;;;;;;;22.40;54.90;;;;;;1563895;75;778;-54
2023/09/03 02:54:58;;;;;;;;;;;22.40;54.90;;;;;;1562576;75;792;-53
2023/09/03 02:57:00;;;;;;;;;;;22.40;55.00;;;;;;1541481;75;731;-54
2023/09/03 02:59:02;;;;;;;;;;;22.40;55.00;;;;;;1548288;75;808;-54
2023/09/03 03:01:06;;;;;;;;;;;22.40;55.20;;;;;;1557389;75;1123;-54
2023/09/03 03:03:08;;;;;;;;;;;22.40;55.30;;;;;;1550885;75;1920;-54
2023/09/03 03:05:09;;;;;;;;;;;22.40;55.30;;;;;;1541941;75;1227;-53
2023/09/03 03:07:11;;;;;;;;;;;22.30;55.20;;;;;;1546071;75;739;-54
2023/09/03 03:09:13;;;;;;;;;;;22.30;55.20;;;;;;1555458;75;684;-53
2023/09/03 03:11:16;;;;;;;;;;;22.30;55.20;;;;;;1534943;75;1140;-54
2023/09/03 03:13:18;;;;;;;;;;;22.40;55.00;;;;;;1568611;75;786;-52
2023/09/03 03:15:20;;;;;;;;;;;22.40;55.00;;;;;;1553196;75;734;-53
2023/09/03 03:17:23;;;;;;;;;;;22.40;54.90;;;;;;1553432;75;692;-52
2023/09/03 03:19:25;;;;;;;;;;;22.30;54.90;;;;;;1553067;75;1435;-53
2023/09/03 03:21:27;;;;;;;;;;;22.40;54.70;;;;;;1557222;75;710;-53
2023/09/03 03:23:28;;;;;;;;;;;22.30;54.70;;;;;;1547783;75;1931;-53
2023/09/03 03:25:30;;;;;;;;;;;22.30;54.60;;;;;;1550883;75;793;-53
2023/09/03 03:27:32;;;;;;;;;;;22.30;54.70;;;;;;1553088;75;779;-52
2023/09/03 03:29:34;;;;;;;;;;;22.30;54.80;;;;;;1544573;75;1140;-53
2023/09/03 03:31:36;;;;;;;;;;;22.30;54.70;;;;;;1545969;75;901;-53
2023/09/03 03:33:39;;;;;;;;;;;22.40;54.70;;;;;;1556659;75;1346;-53
2023/09/03 03:35:41;;;;;;;;;;;22.30;54.70;;;;;;1566571;75;786;-53
2023/09/03 03:37:44;;;;;;;;;;;22.30;54.70;;;;;;1547058;75;1137;-53
2023/09/03 03:39:47;;;;;;;;;;;22.30;54.70;;;;;;1550751;75;1270;-53
2023/09/03 03:41:49;;;;;;;;;;;22.30;54.50;;;;;;1551899;75;1950;-51
2023/09/03 03:43:51;;;;;;;;;;;22.30;54.60;;;;;;1551815;75;1940;-53
2023/09/03 03:45:53;;;;;;;;;;;22.40;54.60;;;;;;1549991;75;701;-53
2023/09/03 03:47:55;;;;;;;;;;;22.40;54.40;;;;;;1541594;75;1508;-52
2023/09/03 03:49:57;;;;;;;;;;;22.40;54.40;;;;;;1552195;75;1103;-51
2023/09/03 03:51:58;;;;;;;;;;;22.30;54.40;;;;;;1552463;75;793;-51
2023/09/03 03:54:04;;;;;;;;;;;22.40;54.40;;;;;;1548001;75;789;-53
2023/09/03 03:56:04;;;;;;;;;;;22.40;54.40;;;;;;1541231;75;1152;-53
2023/09/03 03:58:06;;;;;;;;;;;22.40;54.40;;;;;;1557301;75;790;-53
2023/09/03 04:00:08;;;;;;;;;;;22.30;54.40;;;;;;1540312;75;1144;-52
2023/09/03 04:02:11;;;;;;;;;;;22.40;54.40;;;;;;1542767;75;1920;-52
2023/09/03 04:04:12;;;;;;;;;;;22.30;54.40;;;;;;1546736;75;805;-51
2023/09/03 04:06:14;;;;;;;;;;;22.20;54.30;;;;;;1546482;75;639;-52
2023/09/03 04:08:16;;;;;;;;;;;22.30;54.40;;;;;;1545607;75;671;-51
2023/09/03 04:10:18;;;;;;;;;;;22.30;54.60;;;;;;1549331;75;1159;-53
2023/09/03 04:12:20;;;;;;;;;;;22.20;54.60;;;;;;1558630;75;733;-51
2023/09/03 04:14:22;;;;;;;;;;;22.30;54.60;;;;;;1549180;75;704;-53
2023/09/03 04:16:24;;;;;;;;;;;22.30;54.30;;;;;;1544147;75;724;-53
2023/09/03 04:18:26;;;;;;;;;;;22.30;54.20;;;;;;1549558;75;717;-52
2023/09/03 04:20:28;;;;;;;;;;;22.30;54.20;;;;;;1542460;75;1166;-53
2023/09/03 04:22:30;;;;;;;;;;;22.30;54.20;;;;;;1554961;75;1964;-53
2023/09/03 04:24:32;;;;;;;;;;;22.30;54.20;;;;;;1552810;75;749;-52
2023/09/03 04:26:34;;;;;;;;;;;22.30;54.40;;;;;;1557780;75;678;-53
2023/09/03 04:28:36;;;;;;;;;;;22.30;54.40;;;;;;1556727;75;1466;-53
2023/09/03 04:30:38;;;;;;;;;;;22.20;54.30;;;;;;1545235;75;1158;-53
2023/09/03 04:32:40;;;;;;;;;;;22.20;54.30;;;;;;1554097;75;775;-53
2023/09/03 04:34:42;;;;;;;;;;;22.20;54.40;;;;;;1548715;75;707;-53
2023/09/03 04:36:44;;;;;;;;;;;22.30;54.60;;;;;;1553372;75;685;-52
2023/09/03 04:38:46;;;;;;;;;;;22.40;54.60;;;;;;1553367;75;697;-52
2023/09/03 04:40:48;;;;;;;;;;;22.20;54.40;;;;;;1553035;75;1153;-52
2023/09/03 04:42:50;;;;;;;;;;;22.30;54.40;;;;;;1546951;75;2512;-53
2023/09/03 04:44:52;;;;;;;;;;;22.20;54.50;;;;;;1552623;75;695;-53
2023/09/03 04:46:54;;;;;;;;;;;22.20;54.70;;;;;;1550236;75;672;-51
2023/09/03 04:48:56;;;;;;;;;;;22.30;55.00;;;;;;1537854;75;761;-52
2023/09/03 04:51:00;;;;;;;;;;;22.30;55.00;;;;;;1522919;77;1118;-53
2023/09/03 04:53:02;;;;;;;;;;;22.30;55.00;;;;;;1543942;75;1854;-54
2023/09/03 04:55:05;;;;;;;;;;;22.30;54.70;;;;;;1554946;75;630;-53
2023/09/03 04:57:07;;;;;;;;;;;22.30;54.40;;;;;;1551895;75;1474;-53
2023/09/03 04:59:10;;;;;;;;;;;22.30;54.50;;;;;;1544296;75;728;-53
2023/09/03 05:01:17;;;;;;;;;;;22.30;54.40;;;;;;1550438;75;1146;-53
2023/09/03 05:03:19;;;;;;;;;;;22.30;54.30;;;;;;1544108;75;1951;-53
2023/09/03 05:05:21;;;;;;;;;;;22.30;54.40;;;;;;1545001;75;795;-53
2023/09/03 05:07:23;;;;;;;;;;;22.20;54.30;;;;;;1551673;75;604;-53
2023/09/03 05:09:25;;;;;;;;;;;22.30;54.40;;;;;;1548361;75;1134;-53
2023/09/03 05:11:27;;;;;;;;;;;22.30;54.50;;;;;;1555623;75;1519;-52
2023/09/03 05:13:29;;;;;;;;;;;22.20;54.50;;;;;;1551891;75;743;-53
2023/09/03 05:15:30;;;;;;;;;;;22.30;54.70;;;;;;1558107;75;718;-52
2023/09/03 05:17:33;;;;;;;;;;;22.30;54.60;;;;;;1548881;75;709;-52
2023/09/03 05:19:34;;;;;;;;;;;22.30;54.50;;;;;;1551777;75;1075;-54
2023/09/03 05:21:36;;;;;;;;;;;22.30;54.40;;;;;;1552644;75;709;-52
2023/09/03 05:23:38;;;;;;;;;;;22.30;54.30;;;;;;1554657;75;1947;-53
2023/09/03 05:25:40;;;;;;;;;;;22.30;54.30;;;;;;1552948;75;1433;-54
2023/09/03 05:27:42;;;;;;;;;;;22.30;54.40;;;;;;1556998;75;613;-53
2023/09/03 05:29:44;;;;;;;;;;;22.30;54.70;;;;;;1550888;75;1120;-52
2023/09/03 05:31:46;;;;;;;;;;;22.30;54.70;;;;;;1541591;75;741;-53
2023/09/03 05:33:48;;;;;;;;;;;22.30;55.00;;;;;;1556571;75;711;-52
2023/09/03 05:35:49;;;;;;;;;;;22.30;55.00;;;;;;1556907;75;732;-53
2023/09/03 05:37:51;;;;;;;;;;;22.30;55.00;;;;;;1542073;75;884;-53
2023/09/03 05:39:53;;;;;;;;;;;22.30;55.00;;;;;;1550024;75;1411;-52
2023/09/03 05:41:55;;;;;;;;;;;22.30;55.00;;;;;;1558242;75;595;-52
2023/09/03 05:43:57;;;;;;;;;;;22.30;55.10;;;;;;1543566;75;1933;-53
2023/09/03 05:46:00;;;;;;;;;;;22.20;54.90;;;;;;1545247;75;759;-52
2023/09/03 05:48:02;;;;;;;;;;;22.30;55.10;;;;;;1548846;75;766;-53
2023/09/03 05:50:04;;;;;;;;;;;22.20;54.90;;;;;;1555290;75;1091;-54
2023/09/03 05:52:06;;;;;;;;;;;22.30;55.10;;;;;;1549675;75;673;-53
2023/09/03 05:54:08;;;;;;;;;;;22.30;55.10;;;;;;1540439;75;1445;-52
2023/09/03 05:56:10;;;;;;;;;;;22.30;55.20;;;;;;1546356;75;807;-52
2023/09/03 05:58:12;;;;;;;;;;;22.30;55.20;;;;;;1549734;75;658;-52
2023/09/03 06:00:14;;;;;;;;;;;22.30;55.20;;;;;;1549413;75;1161;-52
2023/09/03 06:02:16;;;;;;;;;;;22.30;55.20;;;;;;1546278;75;680;-52
2023/09/03 06:04:19;;;;;;;;;;;22.30;55.30;;;;;;1548399;75;1941;-53
2023/09/03 06:06:21;;;;;;;;;;;22.30;55.30;;;;;;1545878;75;681;-54
2023/09/03 06:08:23;;;;;;;;;;;22.40;55.40;;;;;;1556626;75;1585;-52
2023/09/03 06:10:25;;;;;;;;;;;22.40;55.40;;;;;;1544142;75;1146;-54
2023/09/03 06:12:27;;;;;;;;;;;22.30;55.40;;;;;;1549269;75;683;-52
2023/09/03 06:14:29;;;;;;;;;;;22.40;55.40;;;;;;1544916;75;677;-53
2023/09/03 06:16:31;;;;;;;;;;;22.40;55.40;;;;;;1544007;75;732;-54
2023/09/03 06:18:33;;;;;;;;;;;22.40;55.40;;;;;;1551092;75;790;-53
2023/09/03 06:20:37;;;;;;;;;;;22.40;55.40;;;;;;1542948;75;1129;-54
2023/09/03 06:22:38;;;;;;;;;;;22.40;55.30;;;;;;1555561;75;1591;-52
2023/09/03 06:24:40;;;;;;;;;;;22.40;55.30;;;;;;1547695;75;1923;-52
2023/09/03 06:26:42;;;;;;;;;;;22.50;55.40;;;;;;1548002;75;674;-52
2023/09/03 06:28:44;;;;;;;;;;;22.40;55.50;;;;;;1553105;75;794;-52
2023/09/03 06:30:46;;;;;;;;;;;22.40;55.50;;;;;;1544571;75;1119;-52
2023/09/03 06:32:48;;;;;;;;;;;22.40;55.50;;;;;;1550362;75;682;-52
2023/09/03 06:34:50;;;;;;;;;;;22.40;55.50;;;;;;1544079;75;662;-53
2023/09/03 06:36:52;;;;;;;;;;;22.50;55.50;;;;;;1547520;75;1256;-52
2023/09/03 06:38:54;;;;;;;;;;;22.40;55.20;;;;;;1549760;75;796;-52
2023/09/03 06:40:56;;;;;;;;;;;22.50;55.30;;;;;;1548036;75;1157;-52
2023/09/03 06:42:57;;;;;;;;;;;22.50;55.20;;;;;;1566563;75;668;-52
2023/09/03 06:44:59;;;;;;;;;;;22.60;55.10;;;;;;1544640;75;1942;-52
2023/09/03 06:47:01;;;;;;;;;;;22.60;54.90;;;;;;1551768;75;817;-54
2023/09/03 06:49:03;;;;;;;;;;;22.70;54.90;;;;;;1546164;75;731;-52
2023/09/03 06:51:05;;;;;;;;;;;22.70;54.70;;;;;;1542098;75;1609;-52
2023/09/03 06:53:07;;;;;;;;;;;22.70;54.70;;;;;;1552589;75;707;-54
2023/09/03 06:55:09;;;;;;;;;;;22.80;54.50;;;;;;1534440;75;801;-54
2023/09/03 06:57:11;;;;;;;;;;;22.80;54.60;;;;;;1540704;75;678;-53
2023/09/03 06:59:13;;;;;;;;;;;22.80;54.60;;;;;;1547803;75;668;-52
2023/09/03 07:01:17;;;;;;;;;;;22.80;54.50;;;;;;1546762;75;1180;-53
2023/09/03 07:03:19;;;;;;;;;;;22.80;54.40;;;;;;1555034;75;1916;-54
2023/09/03 07:05:21;;;;;;;;;;;22.80;54.40;;;;;;1551360;75;739;-52
2023/09/03 07:07:22;;;;;;;;;;;22.80;54.60;;;;;;1552673;75;783;-52
2023/09/03 07:09:26;;;;;;;;;;;22.80;54.60;;;;;;1549879;75;1151;-53
2023/09/03 07:11:28;;;;;;;;;;;22.80;54.60;;;;;;1545585;75;2016;-54
2023/09/03 07:13:30;;;;;;;;;;;22.80;54.50;;;;;;1542878;75;714;-52
2023/09/03 07:15:32;;;;;;;;;;;22.80;54.40;;;;;;1566979;75;681;-52
2023/09/03 07:17:34;;;;;;;;;;;22.80;54.40;;;;;;1552885;75;1485;-53
2023/09/03 07:19:36;;;;;;;;;;;22.80;54.40;;;;;;1553539;75;1123;-52
2023/09/03 07:21:37;;;;;;;;;;;22.90;54.50;;;;;;1547819;75;794;-52
2023/09/03 07:23:39;;;;;;;;;;;22.90;54.50;;;;;;1555857;75;1911;-52
2023/09/03 07:25:41;;;;;;;;;;;22.90;54.60;;;;;;1542958;75;737;-52
2023/09/03 07:27:43;;;;;;;;;;;22.90;54.60;;;;;;1550762;75;694;-53
2023/09/03 07:29:45;;;;;;;;;;;22.80;54.40;;;;;;1547988;75;1235;-52
2023/09/03 07:31:47;;;;;;;;;;;22.80;54.40;;;;;;1559229;75;1588;-53
2023/09/03 07:33:49;;;;;;;;;;;22.90;54.70;;;;;;1564571;75;776;-52
2023/09/03 07:35:51;;;;;;;;;;;22.80;54.70;;;;;;1552506;75;789;-52
2023/09/03 07:37:53;;;;;;;;;;;22.80;54.70;;;;;;1551994;75;677;-51
2023/09/03 07:39:55;;;;;;;;;;;22.80;54.60;;;;;;1543477;75;1166;-52
2023/09/03 07:41:57;;;;;;;;;;;22.70;54.60;;;;;;1551172;75;770;-52
2023/09/03 07:43:59;;;;;;;;;;;22.80;54.60;;;;;;1547116;75;1925;-52
2023/09/03 07:46:00;;;;;;;;;;;22.90;54.70;;;;;;1549862;75;1463;-52
2023/09/03 07:48:02;;;;;;;;;;;22.80;54.60;;;;;;1540562;75;802;-52
2023/09/03 07:50:05;;;;;;;;;;;22.90;54.70;;;;;;1548423;75;1152;-52
2023/09/03 07:52:11;;;;;;;;;;;22.90;55.00;;;;;;1549032;75;806;-54
2023/09/03 07:54:15;;;;;;;;;;;22.90;55.30;;;;;;1553652;75;693;-55
2023/09/03 07:56:17;;;;;;;;;;;22.90;55.20;;;;;;1552632;75;1595;-51
2023/09/03 07:58:19;;;;;;;;;;;22.90;55.60;;;;;;1547270;75;723;-51
2023/09/03 08:00:20;;;;;;;;;;;23.10;56.40;;;;;;1553843;75;1547;-50
2023/09/03 08:02:23;;;;;;;;;;;23.70;55.40;;;;;;1552267;75;715;-50
2023/09/03 08:04:25;;;;;;;;;;;24.00;54.70;;;;;;1551180;75;1919;-52
2023/09/03 08:06:27;;;;;;;;;;;24.00;54.90;;;;;;1547756;75;770;-53
2023/09/03 08:08:28;;;;;;;;;;;23.90;54.90;;;;;;1543255;75;688;-51
2023/09/03 08:10:30;;;;;;;;;;;23.80;55.20;;;;;;1546494;75;1154;-51
2023/09/03 08:12:32;;;;;;;;;;;23.70;55.50;;;;;;1545203;75;713;-51
2023/09/03 08:14:34;;;;;;;;;;;23.70;55.20;;;;;;1545319;75;1519;-52
2023/09/03 08:16:36;;;;;;;;;;;23.70;55.20;;;;;;1544459;75;677;-53
2023/09/03 08:18:38;;;;;;;;;;;23.70;55.60;;;;;;1545937;75;762;-54
2023/09/03 08:20:41;;;;;;;;;;;23.60;55.50;;;;;;1536322;75;1148;-51
2023/09/03 08:22:43;;;;;;;;;;;23.60;55.30;;;;;;1548260;75;756;-53
2023/09/03 08:24:44;;;;;;;;;;;23.60;55.60;;;;;;1556560;75;1963;-53
2023/09/03 08:26:48;;;;;;;;;;;23.50;55.60;;;;;;1539510;75;746;-51
2023/09/03 08:28:50;;;;;;;;;;;23.60;55.40;;;;;;1545198;75;1464;-52
2023/09/03 08:30:52;;;;;;;;;;;23.50;55.50;;;;;;1547594;75;1130;-53
2023/09/03 08:32:54;;;;;;;;;;;23.50;55.40;;;;;;1545083;75;704;-52
2023/09/03 08:34:55;;;;;;;;;;;23.60;55.00;;;;;;1538254;75;694;-52
2023/09/03 08:36:57;;;;;;;;;;;23.50;54.90;;;;;;1549548;75;703;-54
2023/09/03 08:39:01;;;;;;;;;;;23.50;55.00;;;;;;1548025;75;770;-52
2023/09/03 08:41:03;;;;;;;;;;;23.50;55.20;;;;;;1555397;75;1577;-54
2023/09/03 08:43:07;;;;;;;;;;;23.50;55.30;;;;;;1550247;75;1455;-51
2023/09/03 08:45:10;;;;;;;;;;;23.50;55.00;;;;;;1546896;75;1914;-51
2023/09/03 08:47:12;;;;;;;;;;;23.50;55.00;;;;;;1550188;75;675;-53
2023/09/03 08:49:14;;;;;;;;;;;23.50;54.90;;;;;;1563384;75;789;-54
2023/09/03 08:51:17;;;;;;;;;;;23.50;54.80;;;;;;1549770;75;1154;-54
2023/09/03 08:53:19;;;;;;;;;;;23.50;54.70;;;;;;1545032;75;668;-54
2023/09/03 08:55:21;;;;;;;;;;;23.50;54.70;;;;;;1552820;75;677;-54
2023/09/03 08:57:24;;;;;;;;;;;23.50;54.70;;;;;;1550015;75;1570;-52
2023/09/03 08:59:26;;;;;;;;;;;23.50;54.70;;;;;;1552922;75;1753;-53
2023/09/03 09:01:29;;;;;;;;;;;23.50;54.70;;;;;;1547829;75;736;-52
2023/09/03 09:03:31;;;;;;;;;;;23.50;54.70;;;;;;1553183;75;724;-52
2023/09/03 09:05:33;;;;;;;;;;;23.50;54.60;;;;;;1547939;75;1933;-50
2023/09/03 09:07:35;;;;;;;;;;;23.40;54.40;;;;;;1549967;75;738;-50
2023/09/03 09:09:37;;;;;;;;;;;23.50;54.60;;;;;;1549832;75;1098;-51
2023/09/03 09:11:39;;;;;;;;;;;23.40;54.40;;;;;;1548787;75;1569;-52
2023/09/03 09:13:42;;;;;;;;;;;23.50;54.60;;;;;;1552195;75;1060;-52
2023/09/03 09:15:44;;;;;;;;;;;23.50;54.60;;;;;;1549073;75;724;-53
2023/09/03 09:17:48;;;;;;;;;;;23.40;54.40;;;;;;1542191;75;734;-54
2023/09/03 09:19:50;;;;;;;;;;;23.40;54.40;;;;;;1546325;75;1139;-51
2023/09/03 09:21:52;;;;;;;;;;;23.50;54.50;;;;;;1549954;75;685;-52
2023/09/03 09:23:55;;;;;;;;;;;23.50;54.50;;;;;;1546901;75;1439;-51
2023/09/03 09:25:59;;;;;;;;;;;23.50;54.50;;;;;;1549624;75;1955;-51
2023/09/03 09:28:02;;;;;;;;;;;23.40;54.40;;;;;;1542967;75;743;-54
2023/09/03 09:30:15;;;;;;;;;;;23.40;54.40;;;;;;1547044;75;1154;-52
2023/09/03 09:32:20;;;;;;;;;;;23.40;54.30;;;;;;1538365;75;969;-51
2023/09/03 09:34:22;;;;;;;;;;;23.40;54.40;;;;;;1545607;75;743;-52
2023/09/03 09:36:24;;;;;;;;;;;23.40;54.40;;;;;;1547775;75;739;-51
2023/09/03 09:38:27;;;;;;;;;;;23.40;54.30;;;;;;1555485;75;1388;-52
2023/09/03 09:40:32;;;;;;;;;;;23.40;54.40;;;;;;1548672;75;1840;-53
2023/09/03 09:42:35;;;;;;;;;;;23.40;54.30;;;;;;1545884;75;591;-51
2023/09/03 09:44:37;;;;;;;;;;;23.50;54.40;;;;;;1554444;75;1905;-53
2023/09/03 09:46:39;;;;;;;;;;;23.40;54.40;;;;;;1545815;75;725;-51
2023/09/03 09:48:43;;;;;;;;;;;23.40;54.20;;;;;;1562529;75;695;-52
2023/09/03 09:50:45;;;;;;;;;;;23.50;54.60;;;;;;1544366;75;2068;-53
2023/09/03 09:52:47;;;;;;;;;;;23.40;54.40;;;;;;1552462;75;1569;-53
2023/09/03 09:54:49;;;;;;;;;;;23.40;54.40;;;;;;1555868;75;802;-52
2023/09/03 09:56:51;;;;;;;;;;;23.30;54.50;;;;;;1547604;75;734;-53
2023/09/03 09:58:53;;;;;;;;;;;23.40;54.40;;;;;;1545402;75;775;-54
2023/09/03 10:00:55;;;;;;;;;;;23.30;54.60;;;;;;1547770;75;1201;-53
2023/09/03 10:02:57;;;;;;;;;;;23.40;54.70;;;;;;1534026;75;721;-52
2023/09/03 10:04:59;;;;;;;;;;;23.30;54.70;;;;;;1546547;75;1912;-53
2023/09/03 10:07:00;;;;;;;;;;;23.30;54.80;;;;;;1546665;75;1422;-51
2023/09/03 10:09:02;;;;;;;;;;;23.30;54.80;;;;;;1537475;75;1158;-54
2023/09/03 10:11:04;;;;;;;;;;;23.40;54.90;;;;;;1546376;75;1259;-54
2023/09/03 10:13:07;;;;;;;;;;;23.40;54.80;;;;;;1546910;75;1276;-54
2023/09/03 10:15:12;;;;;;;;;;;23.30;55.00;;;;;;1549756;75;1281;-52
2023/09/03 10:17:13;;;;;;;;;;;23.30;55.00;;;;;;1536105;75;1492;-52
2023/09/03 10:19:15;;;;;;;;;;;23.40;55.00;;;;;;1543284;75;1400;-51
2023/09/03 10:21:21;;;;;;;;;;;23.40;55.10;;;;;;1543355;75;1450;-55
2023/09/03 10:23:22;;;;;;;;;;;23.40;55.00;;;;;;1545931;75;1391;-53
2023/09/03 10:25:26;;;;;;;;;;;23.40;55.10;;;;;;1542287;75;1929;-51
2023/09/03 10:27:28;;;;;;;;;;;23.30;55.20;;;;;;1550567;75;1493;-53
2023/09/03 10:29:32;;;;;;;;;;;23.30;55.30;;;;;;1543015;75;1393;-51
2023/09/03 10:31:34;;;;;;;;;;;23.30;55.20;;;;;;1546310;75;1441;-51
2023/09/03 10:33:36;;;;;;;;;;;23.30;55.20;;;;;;1555038;75;1078;-53
2023/09/03 10:35:38;;;;;;;;;;;23.30;55.20;;;;;;1516259;77;1570;-53
2023/09/03 10:37:40;;;;;;;;;;;23.30;55.40;;;;;;1555422;75;1524;-50
2023/09/03 10:39:46;;;;;;;;;;;23.30;55.30;;;;;;1549047;75;1543;-52
2023/09/03 10:41:47;;;;;;;;;;;23.30;55.40;;;;;;1552840;75;1466;-53
2023/09/03 10:43:51;;;;;;;;;;;23.30;55.30;;;;;;1547447;75;1476;-53
2023/09/03 10:46:05;;;;;;;;;;;23.30;55.50;;;;;;1542439;75;1929;-53
2023/09/03 10:48:07;;;;;;;;;;;23.40;55.50;;;;;;1542619;75;1282;-54
2023/09/03 10:50:09;;;;;;;;;;;23.30;55.50;;;;;;1546109;75;1796;-53
2023/09/03 10:52:30;;;;;;;;;;;23.30;55.50;;;;;;1543433;75;1378;-53
2023/09/03 10:54:32;;;;;;;;;;;23.30;55.60;;;;;;1537399;75;1617;-53
2023/09/03 10:56:33;;;;;;;;;;;23.30;55.50;;;;;;1550040;75;1281;-54
2023/09/03 10:58:35;;;;;;;;;;;23.30;55.60;;;;;;1544865;75;1201;-54
2023/09/03 11:00:37;;;;;;;;;;;23.30;55.40;;;;;;1543705;75;1402;-53
2023/09/03 11:02:39;;;;;;;;;;;23.30;55.50;;;;;;1549107;75;1394;-52
2023/09/03 11:04:43;;;;;;;;;;;23.30;55.50;;;;;;1553191;75;1909;-52
2023/09/03 11:06:45;;;;;;;;;;;23.30;55.60;;;;;;1554107;75;1368;-53
2023/09/03 11:08:47;;;;;;;;;;;23.30;55.70;;;;;;1546859;75;1361;-53
2023/09/03 11:10:50;;;;;;;;;;;23.20;55.60;;;;;;1548952;75;1359;-51
2023/09/03 11:12:52;;;;;;;;;;;23.30;55.70;;;;;;1542767;75;1463;-54
2023/09/03 11:14:54;;;;;;;;;;;23.30;55.70;;;;;;1550254;75;1340;-52
2023/09/03 11:16:58;;;;;;;;;;;23.30;55.80;;;;;;1553108;75;1430;-54
2023/09/03 11:19:00;;;;;;;;;;;23.30;55.80;;;;;;1538778;75;2100;-54
2023/09/03 11:21:02;;;;;;;;;;;23.30;55.80;;;;;;1548135;75;1395;-53
2023/09/03 11:23:04;;;;;;;;;;;23.30;55.90;;;;;;1539099;75;1333;-51
2023/09/03 11:25:07;;;;;;;;;;;23.30;56.00;;;;;;1539166;75;1947;-52
2023/09/03 11:27:09;;;;;;;;;;;23.30;55.80;;;;;;1543019;75;1453;-54
2023/09/03 11:29:21;;;;;;;;;;;23.30;55.90;;;;;;1538272;75;1288;-54
2023/09/03 11:31:26;;;;;;;;;;;23.30;56.00;;;;;;1537096;75;1371;-52
2023/09/03 11:33:28;;;;;;;;;;;23.30;56.10;;;;;;1545429;75;1359;-52
2023/09/03 11:35:30;;;;;;;;;;;23.20;55.90;;;;;;1545555;75;1533;-54
2023/09/03 11:37:32;;;;;;;;;;;23.30;56.10;;;;;;1514599;77;1436;-51
2023/09/03 11:39:33;;;;;;;;;;;23.30;56.00;;;;;;1510353;77;1409;-51
2023/09/03 11:41:35;;;;;;;;;;;23.30;56.30;;;;;;1550810;75;1427;-52
2023/09/03 11:43:37;;;;;;;;;;;23.30;56.30;;;;;;1547922;75;1391;-52
2023/09/03 11:45:39;;;;;;;;;;;23.30;56.30;;;;;;1535689;75;1915;-53
2023/09/03 11:47:53;;;;;;;;;;;23.30;56.30;;;;;;1543863;75;1102;-52
2023/09/03 11:49:51;;;;;;;;;;;23.20;56.00;;;;;;1554127;75;1515;-53
2023/09/03 11:51:53;;;;;;;;;;;23.30;56.20;;;;;;1542217;75;1390;-54
2023/09/03 11:53:56;;;;;;;;;;;23.30;56.30;;;;;;1545055;75;1287;-53
2023/09/03 11:55:59;;;;;;;;;;;23.30;56.40;;;;;;1555491;75;1190;-52
2023/09/03 11:58:01;;;;;;;;;;;23.30;56.40;;;;;;1544497;75;1061;-54
2023/09/03 12:00:04;;;;;;;;;;;23.30;56.50;;;;;;1553091;75;1423;-55
2023/09/03 12:02:06;;;;;;;;;;;23.20;56.50;;;;;;1540869;75;1241;-54
2023/09/03 12:04:08;;;;;;;;;;;23.30;56.50;;;;;;1539466;75;1379;-54
2023/09/03 12:06:09;;;;;;;;;;;23.20;56.40;;;;;;1554637;75;1957;-51
2023/09/03 12:08:11;;;;;;;;;;;23.30;56.40;;;;;;1553014;75;1389;-51